sensor_id;sensor_type;location;lat;lon;timestamp;pressure;altitude;pressure_sealevel;temperature;humidity
10127;BME280;13080;42.608;23.362;2023-02-03T00:01:46;151012.13;;;-0.38;92.04
10127;BME280;13080;42.608;23.362;2023-02-03T00:04:13;151026.25;;;-0.32;91.53
10127;BME280;13080;42.608;23.362;2023-02-03T00:06:40;150995.38;;;-0.45;93.13
10127;BME280;13080;42.608;23.362;2023-02-03T00:09:07;151000.53;;;-0.43;93.18
10127;BME280;13080;42.608;23.362;2023-02-03T00:11:34;150974.78;;;-0.53;92.54
10127;BME280;13080;42.608;23.362;2023-02-03T00:14:01;150960.59;;;-0.58;94.80
10127;BME280;13080;42.608;23.362;2023-02-03T00:16:31;150960.59;;;-0.58;94.68
10127;BME280;13080;42.608;23.362;2023-02-03T00:18:57;150945.19;;;-0.65;94.19
10127;BME280;13080;42.608;23.362;2023-02-03T00:21:24;150946.47;;;-0.64;95.54
10127;BME280;13080;42.608;23.362;2023-02-03T00:23:51;150940.03;;;-0.67;94.13
10127;BME280;13080;42.608;23.362;2023-02-03T00:26:18;150946.47;;;-0.64;94.49
10127;BME280;13080;42.608;23.362;2023-02-03T00:28:45;150947.72;;;-0.64;96.32
10127;BME280;13080;42.608;23.362;2023-02-03T00:31:17;150937.44;;;-0.68;96.62
10127;BME280;13080;42.608;23.362;2023-02-03T00:33:46;150955.50;;;-0.60;96.96
10127;BME280;13080;42.608;23.362;2023-02-03T00:36:13;150956.75;;;-0.60;96.10
10127;BME280;13080;42.608;23.362;2023-02-03T00:38:40;150956.75;;;-0.60;96.09
10127;BME280;13080;42.608;23.362;2023-02-03T00:41:07;150951.59;;;-0.62;94.06
10127;BME280;13080;42.608;23.362;2023-02-03T00:43:34;150963.19;;;-0.57;94.58
10127;BME280;13080;42.608;23.362;2023-02-03T00:46:00;150961.91;;;-0.58;91.87
10127;BME280;13080;42.608;23.362;2023-02-03T00:48:28;150968.34;;;-0.55;92.15
10127;BME280;13080;42.608;23.362;2023-02-03T00:50:56;150973.50;;;-0.53;90.60
10127;BME280;13080;42.608;23.362;2023-02-03T00:53:23;150982.47;;;-0.50;89.83
10127;BME280;13080;42.608;23.362;2023-02-03T00:55:50;150978.66;;;-0.51;90.37
10127;BME280;13080;42.608;23.362;2023-02-03T00:58:16;150994.06;;;-0.45;90.12
10127;BME280;13080;42.608;23.362;2023-02-03T01:00:43;150994.06;;;-0.45;89.62
10127;BME280;13080;42.608;23.362;2023-02-03T01:03:10;151005.66;;;-0.40;89.72
10127;BME280;13080;42.608;23.362;2023-02-03T01:05:37;151003.09;;;-0.42;90.27
10127;BME280;13080;42.608;23.362;2023-02-03T01:08:05;150994.06;;;-0.45;91.00
10127;BME280;13080;42.608;23.362;2023-02-03T01:10:32;150982.47;;;-0.50;92.60
10127;BME280;13080;42.608;23.362;2023-02-03T01:12:59;150969.63;;;-0.55;93.79
10127;BME280;13080;42.608;23.362;2023-02-03T01:15:26;150941.31;;;-0.66;94.26
10127;BME280;13080;42.608;23.362;2023-02-03T01:17:52;150933.59;;;-0.69;93.22
10127;BME280;13080;42.608;23.362;2023-02-03T01:20:19;150943.84;;;-0.65;93.16
10127;BME280;13080;42.608;23.362;2023-02-03T01:22:46;150920.69;;;-0.74;91.63
10127;BME280;13080;42.608;23.362;2023-02-03T01:25:15;150936.16;;;-0.68;91.42
10127;BME280;13080;42.608;23.362;2023-02-03T01:27:42;150936.16;;;-0.68;91.70
10127;BME280;13080;42.608;23.362;2023-02-03T01:30:10;150941.31;;;-0.66;90.94
10127;BME280;13080;42.608;23.362;2023-02-03T01:32:36;150936.16;;;-0.68;92.05
10127;BME280;13080;42.608;23.362;2023-02-03T01:35:03;150931.00;;;-0.70;91.87
10127;BME280;13080;42.608;23.362;2023-02-03T01:37:30;150929.72;;;-0.71;91.45
10127;BME280;13080;42.608;23.362;2023-02-03T01:39:57;150910.44;;;-0.78;92.44
10127;BME280;13080;42.608;23.362;2023-02-03T01:42:25;150906.56;;;-0.80;91.02
10127;BME280;13080;42.608;23.362;2023-02-03T01:44:52;150923.31;;;-0.73;91.71
10127;BME280;13080;42.608;23.362;2023-02-03T01:47:27;150928.44;;;-0.71;90.31
10127;BME280;13080;42.608;23.362;2023-02-03T01:50:02;150909.13;;;-0.79;90.72
10127;BME280;13080;42.608;23.362;2023-02-03T01:52:31;150916.88;;;-0.76;91.06
10127;BME280;13080;42.608;23.362;2023-02-03T01:55:00;150927.16;;;-0.72;91.51
10127;BME280;13080;42.608;23.362;2023-02-03T01:57:33;150933.59;;;-0.69;91.14
10127;BME280;13080;42.608;23.362;2023-02-03T02:00:03;150923.31;;;-0.73;91.89
10127;BME280;13080;42.608;23.362;2023-02-03T02:02:30;150924.56;;;-0.73;92.17
10127;BME280;13080;42.608;23.362;2023-02-03T02:05:02;150915.53;;;-0.76;91.95
10127;BME280;13080;42.608;23.362;2023-02-03T02:07:30;150913.00;;;-0.77;92.13
10127;BME280;13080;42.608;23.362;2023-02-03T02:09:58;150900.13;;;-0.82;92.58
10127;BME280;13080;42.608;23.362;2023-02-03T02:12:25;150922.03;;;-0.74;92.12
10127;BME280;13080;42.608;23.362;2023-02-03T02:14:54;150940.03;;;-0.67;91.90
10127;BME280;13080;42.608;23.362;2023-02-03T02:17:45;150942.59;;;-0.66;92.21
10127;BME280;13080;42.608;23.362;2023-02-03T02:20:32;150928.44;;;-0.71;92.20
10127;BME280;13080;42.608;23.362;2023-02-03T02:23:23;150927.16;;;-0.72;91.51
10127;BME280;13080;42.608;23.362;2023-02-03T02:26:24;150911.72;;;-0.78;93.32
10127;BME280;13080;42.608;23.362;2023-02-03T02:29:18;150907.84;;;-0.79;92.61
10127;BME280;13080;42.608;23.362;2023-02-03T02:32:04;150915.53;;;-0.76;91.36
10127;BME280;13080;42.608;23.362;2023-02-03T02:34:42;150922.03;;;-0.74;90.01
10127;BME280;13080;42.608;23.362;2023-02-03T02:37:21;150923.31;;;-0.73;89.85
10127;BME280;13080;42.608;23.362;2023-02-03T02:39:56;150923.31;;;-0.73;90.40
10127;BME280;13080;42.608;23.362;2023-02-03T02:42:31;150914.28;;;-0.77;90.57
10127;BME280;13080;42.608;23.362;2023-02-03T02:45:05;150918.16;;;-0.75;88.96
10127;BME280;13080;42.608;23.362;2023-02-03T02:47:35;150897.53;;;-0.84;88.86
10127;BME280;13080;42.608;23.362;2023-02-03T02:50:07;150916.88;;;-0.76;89.37
10127;BME280;13080;42.608;23.362;2023-02-03T02:52:40;150896.25;;;-0.84;88.02
10127;BME280;13080;42.608;23.362;2023-02-03T02:55:11;150897.53;;;-0.84;88.43
10127;BME280;13080;42.608;23.362;2023-02-03T02:57:41;150893.72;;;-0.85;86.92
10127;BME280;13080;42.608;23.362;2023-02-03T03:00:09;150903.97;;;-0.81;85.45
10127;BME280;13080;42.608;23.362;2023-02-03T03:02:38;150909.13;;;-0.79;85.39
10127;BME280;13080;42.608;23.362;2023-02-03T03:05:09;150903.97;;;-0.81;85.55
10127;BME280;13080;42.608;23.362;2023-02-03T03:07:41;150878.25;;;-0.91;83.61
10127;BME280;13080;42.608;23.362;2023-02-03T03:10:12;150869.22;;;-0.95;82.89
10127;BME280;13080;42.608;23.362;2023-02-03T03:12:46;150861.53;;;-0.98;84.21
10127;BME280;13080;42.608;23.362;2023-02-03T03:15:18;150862.81;;;-0.97;83.81
10127;BME280;13080;42.608;23.362;2023-02-03T03:17:50;150862.81;;;-0.97;85.26
10127;BME280;13080;42.608;23.362;2023-02-03T03:20:21;150846.06;;;-1.04;85.85
10127;BME280;13080;42.608;23.362;2023-02-03T03:22:53;150860.25;;;-0.98;85.46
10127;BME280;13080;42.608;23.362;2023-02-03T03:25:25;150858.94;;;-0.99;84.09
10127;BME280;13080;42.608;23.362;2023-02-03T03:27:57;150869.22;;;-0.95;84.08
10127;BME280;13080;42.608;23.362;2023-02-03T03:30:26;150848.69;;;-1.03;83.45
10127;BME280;13080;42.608;23.362;2023-02-03T03:32:56;150862.81;;;-0.97;83.37
10127;BME280;13080;42.608;23.362;2023-02-03T03:35:27;150865.41;;;-0.96;82.47
10127;BME280;13080;42.608;23.362;2023-02-03T03:37:59;150860.25;;;-0.98;80.98
10127;BME280;13080;42.608;23.362;2023-02-03T03:40:31;150878.25;;;-0.91;80.92
10127;BME280;13080;42.608;23.362;2023-02-03T03:43:02;150889.84;;;-0.87;80.73
10127;BME280;13080;42.608;23.362;2023-02-03T03:45:34;150889.84;;;-0.87;81.70
10127;BME280;13080;42.608;23.362;2023-02-03T03:48:11;150870.50;;;-0.94;81.57
10127;BME280;13080;42.608;23.362;2023-02-03T03:50:43;150885.97;;;-0.88;81.90
10127;BME280;13080;42.608;23.362;2023-02-03T03:53:12;150901.41;;;-0.82;81.95
10127;BME280;13080;42.608;23.362;2023-02-03T03:55:42;150892.38;;;-0.86;81.54
10127;BME280;13080;42.608;23.362;2023-02-03T03:58:13;150905.28;;;-0.80;81.47
10127;BME280;13080;42.608;23.362;2023-02-03T04:00:43;150891.13;;;-0.86;83.07
10127;BME280;13080;42.608;23.362;2023-02-03T04:03:15;150888.56;;;-0.87;83.12
10127;BME280;13080;42.608;23.362;2023-02-03T04:05:42;150882.13;;;-0.90;84.11
10127;BME280;13080;42.608;23.362;2023-02-03T04:08:09;150902.69;;;-0.81;82.99
10127;BME280;13080;42.608;23.362;2023-02-03T04:10:37;150914.28;;;-0.77;82.94
10127;BME280;13080;42.608;23.362;2023-02-03T04:13:06;150923.31;;;-0.73;83.55
10127;BME280;13080;42.608;23.362;2023-02-03T04:15:33;150906.56;;;-0.80;84.71
10127;BME280;13080;42.608;23.362;2023-02-03T04:18:01;150906.56;;;-0.80;84.61
10127;BME280;13080;42.608;23.362;2023-02-03T04:20:30;150891.13;;;-0.86;83.94
10127;BME280;13080;42.608;23.362;2023-02-03T04:22:58;150928.44;;;-0.71;84.60
10127;BME280;13080;42.608;23.362;2023-02-03T04:25:25;150911.72;;;-0.78;84.44
10127;BME280;13080;42.608;23.362;2023-02-03T04:27:52;150905.28;;;-0.80;85.53
10127;BME280;13080;42.608;23.362;2023-02-03T04:30:20;150916.88;;;-0.76;84.09
10127;BME280;13080;42.608;23.362;2023-02-03T04:32:46;150931.00;;;-0.70;85.00
10127;BME280;13080;42.608;23.362;2023-02-03T04:35:14;150919.41;;;-0.75;84.82
10127;BME280;13080;42.608;23.362;2023-02-03T04:37:42;150916.88;;;-0.76;85.46
10127;BME280;13080;42.608;23.362;2023-02-03T04:40:10;150915.53;;;-0.76;84.99
10127;BME280;13080;42.608;23.362;2023-02-03T04:42:37;150943.84;;;-0.65;85.77
10127;BME280;13080;42.608;23.362;2023-02-03T04:45:05;150922.03;;;-0.74;85.22
10127;BME280;13080;42.608;23.362;2023-02-03T04:47:33;150901.41;;;-0.82;85.76
10127;BME280;13080;42.608;23.362;2023-02-03T04:49:59;150892.38;;;-0.86;86.04
10127;BME280;13080;42.608;23.362;2023-02-03T04:52:26;150892.38;;;-0.86;85.63
10127;BME280;13080;42.608;23.362;2023-02-03T04:54:54;150907.84;;;-0.79;85.33
10127;BME280;13080;42.608;23.362;2023-02-03T04:57:21;150891.13;;;-0.86;86.49
10127;BME280;13080;42.608;23.362;2023-02-03T04:59:48;150883.41;;;-0.89;85.47
10127;BME280;13080;42.608;23.362;2023-02-03T05:02:15;150888.56;;;-0.87;86.01
10127;BME280;13080;42.608;23.362;2023-02-03T05:04:41;150887.22;;;-0.88;85.99
10127;BME280;13080;42.608;23.362;2023-02-03T05:07:08;150907.84;;;-0.79;85.10
10127;BME280;13080;42.608;23.362;2023-02-03T05:09:35;150910.44;;;-0.78;84.93
10127;BME280;13080;42.608;23.362;2023-02-03T05:12:04;150876.97;;;-0.92;86.57
10127;BME280;13080;42.608;23.362;2023-02-03T05:14:30;150880.81;;;-0.90;85.14
10127;BME280;13080;42.608;23.362;2023-02-03T05:16:57;150879.53;;;-0.91;85.67
10127;BME280;13080;42.608;23.362;2023-02-03T05:19:24;150875.66;;;-0.92;85.18
10127;BME280;13080;42.608;23.362;2023-02-03T05:21:51;150914.28;;;-0.77;84.37
10127;BME280;13080;42.608;23.362;2023-02-03T05:24:19;150915.53;;;-0.76;85.34
10127;BME280;13080;42.608;23.362;2023-02-03T05:26:45;150906.56;;;-0.80;85.26
10127;BME280;13080;42.608;23.362;2023-02-03T05:29:13;150902.69;;;-0.81;85.61
10127;BME280;13080;42.608;23.362;2023-02-03T05:31:40;150898.81;;;-0.83;84.50
10127;BME280;13080;42.608;23.362;2023-02-03T05:34:07;150894.97;;;-0.85;85.88
10127;BME280;13080;42.608;23.362;2023-02-03T05:36:34;150911.72;;;-0.78;85.50
10127;BME280;13080;42.608;23.362;2023-02-03T05:39:00;150898.81;;;-0.83;86.08
10127;BME280;13080;42.608;23.362;2023-02-03T05:41:27;150891.13;;;-0.86;86.13
10127;BME280;13080;42.608;23.362;2023-02-03T05:44:18;150896.25;;;-0.84;85.89
10127;BME280;13080;42.608;23.362;2023-02-03T05:46:45;150866.69;;;-0.96;86.42
10127;BME280;13080;42.608;23.362;2023-02-03T05:49:12;150842.19;;;-1.06;86.56
10127;BME280;13080;42.608;23.362;2023-02-03T05:51:39;150833.22;;;-1.09;85.77
10127;BME280;13080;42.608;23.362;2023-02-03T05:54:06;150852.50;;;-1.01;85.18
10127;BME280;13080;42.608;23.362;2023-02-03T05:56:34;150829.34;;;-1.11;85.19
10127;BME280;13080;42.608;23.362;2023-02-03T05:59:01;150829.34;;;-1.11;85.29
10127;BME280;13080;42.608;23.362;2023-02-03T06:01:29;150837.09;;;-1.08;85.42
10127;BME280;13080;42.608;23.362;2023-02-03T06:03:55;150849.94;;;-1.02;84.87
10127;BME280;13080;42.608;23.362;2023-02-03T06:06:22;150847.34;;;-1.03;84.43
10127;BME280;13080;42.608;23.362;2023-02-03T06:08:49;150837.09;;;-1.08;84.45
10127;BME280;13080;42.608;23.362;2023-02-03T06:11:20;150835.78;;;-1.08;85.01
10127;BME280;13080;42.608;23.362;2023-02-03T06:13:49;150844.81;;;-1.05;84.25
10127;BME280;13080;42.608;23.362;2023-02-03T06:16:16;150843.53;;;-1.05;83.39
10127;BME280;13080;42.608;23.362;2023-02-03T06:18:44;150849.94;;;-1.02;84.24
10127;BME280;13080;42.608;23.362;2023-02-03T06:21:11;150858.94;;;-0.99;83.48
10127;BME280;13080;42.608;23.362;2023-02-03T06:23:38;150856.38;;;-1.00;84.06
10127;BME280;13080;42.608;23.362;2023-02-03T06:26:05;150867.97;;;-0.95;83.19
10127;BME280;13080;42.608;23.362;2023-02-03T06:28:31;150876.97;;;-0.92;82.82
10127;BME280;13080;42.608;23.362;2023-02-03T06:30:58;150865.41;;;-0.96;83.14
10127;BME280;13080;42.608;23.362;2023-02-03T06:33:25;150879.53;;;-0.91;83.08
10127;BME280;13080;42.608;23.362;2023-02-03T06:35:54;150882.13;;;-0.90;81.17
10127;BME280;13080;42.608;23.362;2023-02-03T06:38:20;150903.97;;;-0.81;82.12
10127;BME280;13080;42.608;23.362;2023-02-03T06:40:47;150911.72;;;-0.78;81.86
10127;BME280;13080;42.608;23.362;2023-02-03T06:43:15;150909.13;;;-0.79;81.83
10127;BME280;13080;42.608;23.362;2023-02-03T06:45:44;150909.13;;;-0.79;80.10
10127;BME280;13080;42.608;23.362;2023-02-03T06:48:10;150922.03;;;-0.74;80.36
10127;BME280;13080;42.608;23.362;2023-02-03T06:50:37;150937.44;;;-0.68;79.01
10127;BME280;13080;42.608;23.362;2023-02-03T06:53:05;150931.00;;;-0.70;80.11
10127;BME280;13080;42.608;23.362;2023-02-03T06:55:32;150945.19;;;-0.65;79.84
10127;BME280;13080;42.608;23.362;2023-02-03T06:57:59;150958.03;;;-0.59;79.31
10127;BME280;13080;42.608;23.362;2023-02-03T07:00:26;150958.03;;;-0.59;79.52
10127;BME280;13080;42.608;23.362;2023-02-03T07:02:53;150956.75;;;-0.60;79.69
10127;BME280;13080;42.608;23.362;2023-02-03T07:05:20;150958.03;;;-0.59;78.33
10127;BME280;13080;42.608;23.362;2023-02-03T07:07:47;150972.22;;;-0.54;78.93
10127;BME280;13080;42.608;23.362;2023-02-03T07:10:15;150994.06;;;-0.45;77.27
10127;BME280;13080;42.608;23.362;2023-02-03T07:12:42;150997.94;;;-0.44;77.34
10127;BME280;13080;42.608;23.362;2023-02-03T07:15:10;151009.53;;;-0.39;76.06
10127;BME280;13080;42.608;23.362;2023-02-03T07:17:37;151006.97;;;-0.40;76.10
10127;BME280;13080;42.608;23.362;2023-02-03T07:20:04;151006.97;;;-0.40;75.90
10127;BME280;13080;42.608;23.362;2023-02-03T07:22:31;151017.28;;;-0.36;75.51
10127;BME280;13080;42.608;23.362;2023-02-03T07:24:58;151039.13;;;-0.27;76.63
10127;BME280;13080;42.608;23.362;2023-02-03T07:27:26;151040.44;;;-0.27;73.21
10127;BME280;13080;42.608;23.362;2023-02-03T07:29:54;151043.00;;;-0.26;73.16
10127;BME280;13080;42.608;23.362;2023-02-03T07:32:20;151053.31;;;-0.22;72.45
10127;BME280;13080;42.608;23.362;2023-02-03T07:34:47;151066.16;;;-0.16;72.68
10127;BME280;13080;42.608;23.362;2023-02-03T07:37:14;151066.16;;;-0.16;72.47
10127;BME280;13080;42.608;23.362;2023-02-03T07:39:40;151097.09;;;-0.04;72.66
10127;BME280;13080;42.608;23.362;2023-02-03T07:42:07;151089.34;;;-0.07;74.07
10127;BME280;13080;42.608;23.362;2023-02-03T07:44:36;151097.09;;;-0.04;74.04
10127;BME280;13080;42.608;23.362;2023-02-03T07:47:02;151098.38;;;-0.04;74.11
10127;BME280;13080;42.608;23.362;2023-02-03T07:49:29;151134.41;;;0.11;73.70
10127;BME280;13080;42.608;23.362;2023-02-03T07:51:56;151124.09;;;0.07;73.48
10127;BME280;13080;42.608;23.362;2023-02-03T07:54:22;151125.44;;;0.07;74.24
10127;BME280;13080;42.608;23.362;2023-02-03T07:56:49;151142.16;;;0.14;72.67
10127;BME280;13080;42.608;23.362;2023-02-03T07:59:16;151142.16;;;0.14;72.15
10127;BME280;13080;42.608;23.362;2023-02-03T08:01:44;151146.00;;;0.15;72.10
10127;BME280;13080;42.608;23.362;2023-02-03T08:04:11;151160.19;;;0.21;72.24
10127;BME280;13080;42.608;23.362;2023-02-03T08:06:40;151164.06;;;0.23;72.13
10127;BME280;13080;42.608;23.362;2023-02-03T08:09:07;151179.50;;;0.29;71.15
10127;BME280;13080;42.608;23.362;2023-02-03T08:11:34;151179.50;;;0.29;72.25
10127;BME280;13080;42.608;23.362;2023-02-03T08:14:01;151183.38;;;0.30;71.89
10127;BME280;13080;42.608;23.362;2023-02-03T08:16:28;151197.50;;;0.36;70.00
10127;BME280;13080;42.608;23.362;2023-02-03T08:18:56;151219.41;;;0.45;70.64
10127;BME280;13080;42.608;23.362;2023-02-03T08:21:23;151237.50;;;0.52;70.67
10127;BME280;13080;42.608;23.362;2023-02-03T08:23:50;151233.63;;;0.50;69.52
10127;BME280;13080;42.608;23.362;2023-02-03T08:26:17;151219.41;;;0.45;71.30
10127;BME280;13080;42.608;23.362;2023-02-03T08:28:47;151202.66;;;0.38;72.17
10127;BME280;13080;42.608;23.362;2023-02-03T08:31:14;151206.56;;;0.39;71.62
10127;BME280;13080;42.608;23.362;2023-02-03T08:33:41;151215.59;;;0.43;71.93
10127;BME280;13080;42.608;23.362;2023-02-03T08:36:10;151227.19;;;0.48;69.42
10127;BME280;13080;42.608;23.362;2023-02-03T08:38:37;151242.59;;;0.54;68.82
10127;BME280;13080;42.608;23.362;2023-02-03T08:41:08;151240.03;;;0.53;69.89
10127;BME280;13080;42.608;23.362;2023-02-03T08:43:36;151243.94;;;0.54;69.77
10127;BME280;13080;42.608;23.362;2023-02-03T08:46:03;151241.31;;;0.53;69.25
10127;BME280;13080;42.608;23.362;2023-02-03T08:48:30;151261.97;;;0.61;69.17
10127;BME280;13080;42.608;23.362;2023-02-03T08:50:57;151260.69;;;0.61;69.59
10127;BME280;13080;42.608;23.362;2023-02-03T08:53:26;151304.44;;;0.78;70.09
10127;BME280;13080;42.608;23.362;2023-02-03T08:55:53;151296.72;;;0.75;69.52
10127;BME280;13080;42.608;23.362;2023-02-03T08:58:20;151309.63;;;0.80;71.39
10127;BME280;13080;42.608;23.362;2023-02-03T09:00:47;151316.09;;;0.83;71.88
10127;BME280;13080;42.608;23.362;2023-02-03T09:03:14;151310.94;;;0.81;72.04
10127;BME280;13080;42.608;23.362;2023-02-03T09:05:41;151305.78;;;0.79;72.70
10127;BME280;13080;42.608;23.362;2023-02-03T09:08:07;151327.69;;;0.88;73.77
10127;BME280;13080;42.608;23.362;2023-02-03T09:10:36;151365.03;;;1.02;72.63
10127;BME280;13080;42.608;23.362;2023-02-03T09:13:03;151350.88;;;0.97;70.47
10127;BME280;13080;42.608;23.362;2023-02-03T09:15:29;151301.91;;;0.77;71.93
10127;BME280;13080;42.608;23.362;2023-02-03T09:17:56;151314.78;;;0.82;73.05
10127;BME280;13080;42.608;23.362;2023-02-03T09:20:23;151352.16;;;0.97;73.98
10127;BME280;13080;42.608;23.362;2023-02-03T09:22:50;151356.03;;;0.99;74.21
10127;BME280;13080;42.608;23.362;2023-02-03T09:25:19;151359.88;;;1.00;73.03
10127;BME280;13080;42.608;23.362;2023-02-03T09:27:47;151358.59;;;1.00;73.86
10127;BME280;13080;42.608;23.362;2023-02-03T09:30:14;151363.75;;;1.02;73.52
10127;BME280;13080;42.608;23.362;2023-02-03T09:32:41;151375.34;;;1.07;74.60
10127;BME280;13080;42.608;23.362;2023-02-03T09:35:07;151408.88;;;1.20;72.17
10127;BME280;13080;42.608;23.362;2023-02-03T09:37:35;151390.84;;;1.13;72.00
10127;BME280;13080;42.608;23.362;2023-02-03T09:40:02;151385.69;;;1.11;71.25
10127;BME280;13080;42.608;23.362;2023-02-03T09:42:57;151390.84;;;1.13;72.41
10127;BME280;13080;42.608;23.362;2023-02-03T09:45:28;151432.06;;;1.29;72.80
10127;BME280;13080;42.608;23.362;2023-02-03T09:47:58;151468.16;;;1.43;73.08
10127;BME280;13080;42.608;23.362;2023-02-03T09:50:32;151442.41;;;1.33;72.48
10127;BME280;13080;42.608;23.362;2023-02-03T09:53:04;151421.75;;;1.25;71.52
10127;BME280;13080;42.608;23.362;2023-02-03T09:55:35;151437.22;;;1.31;71.26
10127;BME280;13080;42.608;23.362;2023-02-03T09:58:05;151484.91;;;1.50;71.94
10127;BME280;13080;42.608;23.362;2023-02-03T10:00:35;151446.28;;;1.35;70.56
10127;BME280;13080;42.608;23.362;2023-02-03T10:03:07;151465.59;;;1.42;72.27
10127;BME280;13080;42.608;23.362;2023-02-03T10:06:15;151482.34;;;1.49;71.42
10127;BME280;13080;42.608;23.362;2023-02-03T10:09:04;151474.63;;;1.46;72.59
10127;BME280;13080;42.608;23.362;2023-02-03T10:11:47;151461.72;;;1.41;71.07
10127;BME280;13080;42.608;23.362;2023-02-03T10:14:33;151487.50;;;1.51;70.04
10127;BME280;13080;42.608;23.362;2023-02-03T10:17:18;151482.34;;;1.49;66.67
10127;BME280;13080;42.608;23.362;2023-02-03T10:19:51;151461.72;;;1.41;66.11
10127;BME280;13080;42.608;23.362;2023-02-03T10:22:23;151504.28;;;1.58;65.99
10127;BME280;13080;42.608;23.362;2023-02-03T10:24:56;151527.50;;;1.67;68.17
10127;BME280;13080;42.608;23.362;2023-02-03T10:27:24;151537.81;;;1.71;67.03
10127;BME280;13080;42.608;23.362;2023-02-03T10:29:56;151539.09;;;1.72;67.40
10127;BME280;13080;42.608;23.362;2023-02-03T10:32:26;151553.31;;;1.77;69.17
10127;BME280;13080;42.608;23.362;2023-02-03T10:34:53;151611.31;;;2.00;68.75
10127;BME280;13080;42.608;23.362;2023-02-03T10:37:25;151579.06;;;1.87;68.74
10127;BME280;13080;42.608;23.362;2023-02-03T10:39:53;151544.25;;;1.74;68.64
10127;BME280;13080;42.608;23.362;2023-02-03T10:42:21;151496.56;;;1.55;69.08
10127;BME280;13080;42.608;23.362;2023-02-03T10:44:52;151527.50;;;1.67;64.95
10127;BME280;13080;42.608;23.362;2023-02-03T10:47:28;151619.06;;;2.03;63.81
10127;BME280;13080;42.608;23.362;2023-02-03T10:50:00;151702.91;;;2.37;59.71
10127;BME280;13080;42.608;23.362;2023-02-03T10:52:30;151754.53;;;2.57;59.07
10127;BME280;13080;42.608;23.362;2023-02-03T10:54:58;151830.72;;;2.87;59.18
10127;BME280;13080;42.608;23.362;2023-02-03T10:57:33;151826.81;;;2.86;58.17
10127;BME280;13080;42.608;23.362;2023-02-03T11:00:07;151794.53;;;2.73;56.83
10127;BME280;13080;42.608;23.362;2023-02-03T11:02:54;151690.03;;;2.32;57.52
10127;BME280;13080;42.608;23.362;2023-02-03T11:05:22;151696.47;;;2.34;58.91
10127;BME280;13080;42.608;23.362;2023-02-03T11:07:51;151599.72;;;1.96;60.64
10127;BME280;13080;42.608;23.362;2023-02-03T11:10:30;151628.09;;;2.07;59.99
10127;BME280;13080;42.608;23.362;2023-02-03T11:13:20;151590.69;;;1.92;59.83
10127;BME280;13080;42.608;23.362;2023-02-03T11:15:56;151629.38;;;2.07;60.48
10127;BME280;13080;42.608;23.362;2023-02-03T11:18:44;151655.19;;;2.18;59.73
10127;BME280;13080;42.608;23.362;2023-02-03T11:21:15;151629.38;;;2.07;57.32
10127;BME280;13080;42.608;23.362;2023-02-03T11:23:49;151638.44;;;2.11;60.09
10127;BME280;13080;42.608;23.362;2023-02-03T11:26:20;151635.81;;;2.10;59.01
10127;BME280;13080;42.608;23.362;2023-02-03T11:28:50;151709.38;;;2.39;56.40
10127;BME280;13080;42.608;23.362;2023-02-03T11:31:20;151736.47;;;2.50;56.86
10127;BME280;13080;42.608;23.362;2023-02-03T11:33:54;151777.75;;;2.66;56.65
10127;BME280;13080;42.608;23.362;2023-02-03T11:36:24;151828.09;;;2.86;55.97
10127;BME280;13080;42.608;23.362;2023-02-03T11:38:52;151802.31;;;2.76;57.24
10127;BME280;13080;42.608;23.362;2023-02-03T11:41:36;151629.38;;;2.07;59.87
10127;BME280;13080;42.608;23.362;2023-02-03T11:44:09;151616.50;;;2.02;57.91
10127;BME280;13080;42.608;23.362;2023-02-03T11:46:37;151572.63;;;1.85;57.36
10127;BME280;13080;42.608;23.362;2023-02-03T11:49:17;151568.75;;;1.83;57.73
10127;BME280;13080;42.608;23.362;2023-02-03T11:51:59;151575.19;;;1.86;58.29
10127;BME280;13080;42.608;23.362;2023-02-03T11:54:36;151634.53;;;2.10;59.14
10127;BME280;13080;42.608;23.362;2023-02-03T11:57:20;151674.53;;;2.25;57.76
10127;BME280;13080;42.608;23.362;2023-02-03T12:00:06;151733.91;;;2.49;57.09
10127;BME280;13080;42.608;23.362;2023-02-03T12:05:52;151780.38;;;2.67;56.58
10127;BME280;13080;42.608;23.362;2023-02-03T12:08:37;151670.66;;;2.24;59.09
10127;BME280;13080;42.608;23.362;2023-02-03T12:11:15;151642.25;;;2.13;58.89
10127;BME280;13080;42.608;23.362;2023-02-03T12:13:59;151545.53;;;1.74;58.78
10127;BME280;13080;42.608;23.362;2023-02-03T12:19:39;151519.78;;;1.64;58.22
10127;BME280;13080;42.608;23.362;2023-02-03T12:22:17;151558.41;;;1.79;58.02
10127;BME280;13080;42.608;23.362;2023-02-03T12:24:52;151598.44;;;1.95;56.32
10127;BME280;13080;42.608;23.362;2023-02-03T12:27:33;151617.78;;;2.03;55.85
10127;BME280;13080;42.608;23.362;2023-02-03T12:30:09;151699.03;;;2.35;55.71
10127;BME280;13080;42.608;23.362;2023-02-03T12:32:42;151757.13;;;2.58;55.46
10127;BME280;13080;42.608;23.362;2023-02-03T12:35:16;151780.38;;;2.67;54.94
10127;BME280;13080;42.608;23.362;2023-02-03T12:37:49;151757.13;;;2.58;53.89
10127;BME280;13080;42.608;23.362;2023-02-03T12:40:21;151686.16;;;2.30;52.67
10127;BME280;13080;42.608;23.362;2023-02-03T12:42:54;151662.94;;;2.21;54.55
10127;BME280;13080;42.608;23.362;2023-02-03T12:45:24;151606.16;;;1.98;54.26
10127;BME280;13080;42.608;23.362;2023-02-03T12:47:57;151575.19;;;1.86;55.35
10127;BME280;13080;42.608;23.362;2023-02-03T12:50:31;151576.50;;;1.86;56.45
10127;BME280;13080;42.608;23.362;2023-02-03T12:53:03;151490.06;;;1.52;57.22
10127;BME280;13080;42.608;23.362;2023-02-03T12:55:33;151481.06;;;1.49;57.45
10127;BME280;13080;42.608;23.362;2023-02-03T12:58:04;151492.69;;;1.53;57.62
10127;BME280;13080;42.608;23.362;2023-02-03T13:00:42;151447.56;;;1.35;58.41
10127;BME280;13080;42.608;23.362;2023-02-03T13:03:16;151426.91;;;1.27;60.73
10127;BME280;13080;42.608;23.362;2023-02-03T13:05:49;151406.31;;;1.19;59.55